sensor_id;sensor_type;location;lat;lon;timestamp;P1;durP1;ratioP1;P2;durP2;ratioP2
15130;SDS011;7666;50.920;4.628;2023-07-20T00:00:34;7.23;;;3.40;;
15130;SDS011;7666;50.920;4.628;2023-07-20T00:03:20;7.77;;;2.80;;
15130;SDS011;7666;50.920;4.628;2023-07-20T00:06:10;5.57;;;2.53;;
15130;SDS011;7666;50.920;4.628;2023-07-20T00:08:56;8.30;;;2.80;;
15130;SDS011;7666;50.920;4.628;2023-07-20T00:11:50;4.17;;;2.67;;
15130;SDS011;7666;50.920;4.628;2023-07-20T00:14:36;6.50;;;3.00;;
15130;SDS011;7666;50.920;4.628;2023-07-20T00:17:23;5.10;;;2.37;;
15130;SDS011;7666;50.920;4.628;2023-07-20T00:20:09;6.27;;;2.50;;
15130;SDS011;7666;50.920;4.628;2023-07-20T00:22:55;3.57;;;2.40;;
15130;SDS011;7666;50.920;4.628;2023-07-20T00:25:43;6.17;;;2.73;;
15130;SDS011;7666;50.920;4.628;2023-07-20T00:28:29;5.67;;;2.80;;
15130;SDS011;7666;50.920;4.628;2023-07-20T00:31:15;4.47;;;2.87;;
15130;SDS011;7666;50.920;4.628;2023-07-20T00:34:01;6.73;;;2.83;;
15130;SDS011;7666;50.920;4.628;2023-07-20T00:36:47;5.67;;;2.83;;
15130;SDS011;7666;50.920;4.628;2023-07-20T00:39:34;5.70;;;3.10;;
15130;SDS011;7666;50.920;4.628;2023-07-20T00:42:20;5.73;;;3.00;;
15130;SDS011;7666;50.920;4.628;2023-07-20T00:45:06;5.90;;;3.10;;
15130;SDS011;7666;50.920;4.628;2023-07-20T00:47:52;6.20;;;3.07;;
15130;SDS011;7666;50.920;4.628;2023-07-20T00:50:38;8.27;;;3.70;;
15130;SDS011;7666;50.920;4.628;2023-07-20T00:53:25;9.40;;;3.53;;
15130;SDS011;7666;50.920;4.628;2023-07-20T00:56:12;7.33;;;3.17;;
15130;SDS011;7666;50.920;4.628;2023-07-20T00:58:58;7.67;;;3.60;;
15130;SDS011;7666;50.920;4.628;2023-07-20T01:01:44;6.83;;;3.70;;
15130;SDS011;7666;50.920;4.628;2023-07-20T01:04:30;8.23;;;3.67;;
15130;SDS011;7666;50.920;4.628;2023-07-20T01:07:24;6.10;;;3.30;;
15130;SDS011;7666;50.920;4.628;2023-07-20T01:10:29;9.40;;;3.60;;
15130;SDS011;7666;50.920;4.628;2023-07-20T01:13:21;7.50;;;3.50;;
15130;SDS011;7666;50.920;4.628;2023-07-20T01:16:08;9.97;;;3.90;;
15130;SDS011;7666;50.920;4.628;2023-07-20T01:18:54;5.40;;;3.50;;
15130;SDS011;7666;50.920;4.628;2023-07-20T01:21:44;6.50;;;3.83;;
15130;SDS011;7666;50.920;4.628;2023-07-20T01:30:56;5.77;;;3.50;;
15130;SDS011;7666;50.920;4.628;2023-07-20T01:34:00;5.20;;;3.57;;
15130;SDS011;7666;50.920;4.628;2023-07-20T01:36:47;12.20;;;4.57;;
15130;SDS011;7666;50.920;4.628;2023-07-20T01:39:35;9.47;;;4.67;;
15130;SDS011;7666;50.920;4.628;2023-07-20T01:42:23;7.40;;;3.97;;
15130;SDS011;7666;50.920;4.628;2023-07-20T01:45:09;10.80;;;4.30;;
15130;SDS011;7666;50.920;4.628;2023-07-20T01:47:55;10.87;;;4.23;;
15130;SDS011;7666;50.920;4.628;2023-07-20T01:50:42;7.47;;;3.97;;
15130;SDS011;7666;50.920;4.628;2023-07-20T01:53:28;10.00;;;5.07;;
15130;SDS011;7666;50.920;4.628;2023-07-20T01:56:14;13.77;;;4.80;;
15130;SDS011;7666;50.920;4.628;2023-07-20T01:59:00;9.63;;;5.03;;
15130;SDS011;7666;50.920;4.628;2023-07-20T02:01:46;11.17;;;4.87;;
15130;SDS011;7666;50.920;4.628;2023-07-20T02:04:32;13.70;;;5.30;;
15130;SDS011;7666;50.920;4.628;2023-07-20T02:07:18;8.80;;;5.13;;
15130;SDS011;7666;50.920;4.628;2023-07-20T02:10:04;8.07;;;5.47;;
15130;SDS011;7666;50.920;4.628;2023-07-20T02:12:50;9.47;;;5.47;;
15130;SDS011;7666;50.920;4.628;2023-07-20T02:15:36;11.43;;;6.00;;
15130;SDS011;7666;50.920;4.628;2023-07-20T02:18:22;12.83;;;5.73;;
15130;SDS011;7666;50.920;4.628;2023-07-20T02:21:08;12.40;;;6.20;;
15130;SDS011;7666;50.920;4.628;2023-07-20T02:23:54;11.90;;;6.07;;
15130;SDS011;7666;50.920;4.628;2023-07-20T02:26:40;13.07;;;6.40;;
15130;SDS011;7666;50.920;4.628;2023-07-20T02:29:27;15.47;;;6.40;;
15130;SDS011;7666;50.920;4.628;2023-07-20T02:32:13;11.73;;;6.10;;
15130;SDS011;7666;50.920;4.628;2023-07-20T02:34:59;9.60;;;6.00;;
15130;SDS011;7666;50.920;4.628;2023-07-20T02:37:45;8.60;;;5.93;;
15130;SDS011;7666;50.920;4.628;2023-07-20T02:40:31;13.93;;;6.23;;
15130;SDS011;7666;50.920;4.628;2023-07-20T02:43:17;10.13;;;5.93;;
15130;SDS011;7666;50.920;4.628;2023-07-20T02:46:03;10.90;;;5.70;;
15130;SDS011;7666;50.920;4.628;2023-07-20T02:48:49;14.67;;;6.50;;
15130;SDS011;7666;50.920;4.628;2023-07-20T02:51:35;10.67;;;6.40;;
15130;SDS011;7666;50.920;4.628;2023-07-20T02:54:21;11.20;;;7.03;;
15130;SDS011;7666;50.920;4.628;2023-07-20T02:57:07;10.47;;;6.63;;
15130;SDS011;7666;50.920;4.628;2023-07-20T02:59:53;11.30;;;6.80;;
15130;SDS011;7666;50.920;4.628;2023-07-20T03:02:40;10.50;;;7.33;;
15130;SDS011;7666;50.920;4.628;2023-07-20T03:05:26;9.40;;;6.90;;
15130;SDS011;7666;50.920;4.628;2023-07-20T03:08:13;9.50;;;7.03;;
15130;SDS011;7666;50.920;4.628;2023-07-20T03:10:59;11.30;;;6.63;;
15130;SDS011;7666;50.920;4.628;2023-07-20T03:13:45;12.30;;;8.03;;
15130;SDS011;7666;50.920;4.628;2023-07-20T03:16:31;11.73;;;7.63;;
15130;SDS011;7666;50.920;4.628;2023-07-20T03:19:20;11.23;;;7.57;;
15130;SDS011;7666;50.920;4.628;2023-07-20T03:22:06;8.77;;;6.50;;
15130;SDS011;7666;50.920;4.628;2023-07-20T03:24:52;12.53;;;6.60;;
15130;SDS011;7666;50.920;4.628;2023-07-20T03:27:38;13.33;;;8.00;;
15130;SDS011;7666;50.920;4.628;2023-07-20T03:30:24;13.80;;;7.40;;
15130;SDS011;7666;50.920;4.628;2023-07-20T03:33:11;10.30;;;6.90;;
15130;SDS011;7666;50.920;4.628;2023-07-20T03:35:57;9.73;;;7.03;;
15130;SDS011;7666;50.920;4.628;2023-07-20T03:38:43;9.80;;;6.40;;
15130;SDS011;7666;50.920;4.628;2023-07-20T03:41:29;10.93;;;6.27;;
15130;SDS011;7666;50.920;4.628;2023-07-20T03:44:15;8.53;;;6.30;;
15130;SDS011;7666;50.920;4.628;2023-07-20T03:47:02;9.60;;;6.60;;
15130;SDS011;7666;50.920;4.628;2023-07-20T03:49:50;12.60;;;7.53;;
15130;SDS011;7666;50.920;4.628;2023-07-20T03:52:36;10.93;;;7.07;;
15130;SDS011;7666;50.920;4.628;2023-07-20T03:55:22;12.97;;;8.23;;
15130;SDS011;7666;50.920;4.628;2023-07-20T03:58:07;9.23;;;7.33;;
15130;SDS011;7666;50.920;4.628;2023-07-20T04:00:53;11.43;;;8.37;;
15130;SDS011;7666;50.920;4.628;2023-07-20T04:03:39;15.60;;;9.20;;
15130;SDS011;7666;50.920;4.628;2023-07-20T04:06:25;11.33;;;7.73;;
15130;SDS011;7666;50.920;4.628;2023-07-20T04:09:11;11.90;;;7.40;;
15130;SDS011;7666;50.920;4.628;2023-07-20T04:11:58;15.63;;;8.37;;
15130;SDS011;7666;50.920;4.628;2023-07-20T04:14:44;12.53;;;8.50;;
15130;SDS011;7666;50.920;4.628;2023-07-20T04:17:30;16.37;;;9.63;;
15130;SDS011;7666;50.920;4.628;2023-07-20T04:20:16;12.63;;;8.33;;
15130;SDS011;7666;50.920;4.628;2023-07-20T04:23:03;15.30;;;9.40;;
15130;SDS011;7666;50.920;4.628;2023-07-20T04:25:50;14.60;;;9.37;;
15130;SDS011;7666;50.920;4.628;2023-07-20T04:28:37;14.40;;;9.23;;
15130;SDS011;7666;50.920;4.628;2023-07-20T04:31:23;15.93;;;9.40;;
15130;SDS011;7666;50.920;4.628;2023-07-20T04:34:09;11.63;;;7.90;;
15130;SDS011;7666;50.920;4.628;2023-07-20T04:36:55;18.17;;;9.77;;
15130;SDS011;7666;50.920;4.628;2023-07-20T04:39:41;15.43;;;9.77;;
15130;SDS011;7666;50.920;4.628;2023-07-20T04:42:27;14.93;;;9.93;;
15130;SDS011;7666;50.920;4.628;2023-07-20T04:45:13;18.40;;;11.13;;
15130;SDS011;7666;50.920;4.628;2023-07-20T04:47:59;12.17;;;9.90;;
15130;SDS011;7666;50.920;4.628;2023-07-20T04:50:45;11.30;;;9.20;;
15130;SDS011;7666;50.920;4.628;2023-07-20T04:53:31;13.97;;;9.43;;
15130;SDS011;7666;50.920;4.628;2023-07-20T04:56:17;15.10;;;9.87;;
15130;SDS011;7666;50.920;4.628;2023-07-20T04:59:03;15.53;;;9.00;;
15130;SDS011;7666;50.920;4.628;2023-07-20T05:01:49;13.50;;;10.00;;
15130;SDS011;7666;50.920;4.628;2023-07-20T05:04:35;16.30;;;9.83;;
15130;SDS011;7666;50.920;4.628;2023-07-20T05:07:21;12.27;;;9.50;;
15130;SDS011;7666;50.920;4.628;2023-07-20T05:10:07;14.33;;;10.57;;
15130;SDS011;7666;50.920;4.628;2023-07-20T05:12:53;16.77;;;10.67;;
15130;SDS011;7666;50.920;4.628;2023-07-20T05:15:39;12.47;;;9.97;;
15130;SDS011;7666;50.920;4.628;2023-07-20T05:18:25;12.53;;;9.87;;
15130;SDS011;7666;50.920;4.628;2023-07-20T05:21:11;14.77;;;9.73;;
15130;SDS011;7666;50.920;4.628;2023-07-20T05:23:57;11.73;;;8.93;;
15130;SDS011;7666;50.920;4.628;2023-07-20T05:26:43;10.80;;;9.53;;
15130;SDS011;7666;50.920;4.628;2023-07-20T05:29:29;11.33;;;10.07;;
15130;SDS011;7666;50.920;4.628;2023-07-20T05:32:15;12.20;;;10.47;;
15130;SDS011;7666;50.920;4.628;2023-07-20T05:35:01;12.47;;;9.20;;
15130;SDS011;7666;50.920;4.628;2023-07-20T05:37:47;15.10;;;10.03;;
15130;SDS011;7666;50.920;4.628;2023-07-20T05:40:37;14.47;;;10.57;;
15130;SDS011;7666;50.920;4.628;2023-07-20T05:43:25;17.50;;;10.40;;
15130;SDS011;7666;50.920;4.628;2023-07-20T05:46:11;14.97;;;10.43;;
15130;SDS011;7666;50.920;4.628;2023-07-20T05:48:57;12.10;;;10.80;;
15130;SDS011;7666;50.920;4.628;2023-07-20T05:51:43;12.20;;;9.77;;
15130;SDS011;7666;50.920;4.628;2023-07-20T05:54:29;13.00;;;10.87;;
15130;SDS011;7666;50.920;4.628;2023-07-20T05:57:15;11.43;;;10.10;;
15130;SDS011;7666;50.920;4.628;2023-07-20T06:00:01;14.27;;;10.93;;
15130;SDS011;7666;50.920;4.628;2023-07-20T06:02:47;14.10;;;9.83;;
15130;SDS011;7666;50.920;4.628;2023-07-20T06:05:33;14.10;;;10.37;;
15130;SDS011;7666;50.920;4.628;2023-07-20T06:08:19;12.67;;;10.00;;
15130;SDS011;7666;50.920;4.628;2023-07-20T06:11:05;12.13;;;9.67;;
15130;SDS011;7666;50.920;4.628;2023-07-20T06:13:51;13.17;;;10.87;;
15130;SDS011;7666;50.920;4.628;2023-07-20T06:16:37;15.73;;;11.17;;
15130;SDS011;7666;50.920;4.628;2023-07-20T06:19:23;10.77;;;9.37;;
15130;SDS011;7666;50.920;4.628;2023-07-20T06:22:09;13.67;;;11.30;;
15130;SDS011;7666;50.920;4.628;2023-07-20T06:24:55;12.27;;;10.20;;
15130;SDS011;7666;50.920;4.628;2023-07-20T06:27:42;11.40;;;9.13;;
15130;SDS011;7666;50.920;4.628;2023-07-20T06:30:28;12.60;;;9.63;;
15130;SDS011;7666;50.920;4.628;2023-07-20T06:33:14;11.13;;;8.60;;
15130;SDS011;7666;50.920;4.628;2023-07-20T06:36:00;12.90;;;9.43;;
15130;SDS011;7666;50.920;4.628;2023-07-20T06:38:46;10.43;;;9.03;;
15130;SDS011;7666;50.920;4.628;2023-07-20T06:41:32;12.13;;;10.03;;
15130;SDS011;7666;50.920;4.628;2023-07-20T06:44:18;13.63;;;10.07;;
15130;SDS011;7666;50.920;4.628;2023-07-20T06:47:04;11.10;;;8.87;;
15130;SDS011;7666;50.920;4.628;2023-07-20T06:49:50;9.77;;;8.77;;
15130;SDS011;7666;50.920;4.628;2023-07-20T06:52:36;12.37;;;10.30;;
15130;SDS011;7666;50.920;4.628;2023-07-20T06:55:22;11.67;;;9.67;;
15130;SDS011;7666;50.920;4.628;2023-07-20T06:58:08;13.53;;;11.67;;
15130;SDS011;7666;50.920;4.628;2023-07-20T07:00:55;12.33;;;10.90;;
15130;SDS011;7666;50.920;4.628;2023-07-20T07:03:41;13.67;;;11.73;;
15130;SDS011;7666;50.920;4.628;2023-07-20T07:06:28;11.63;;;10.47;;
15130;SDS011;7666;50.920;4.628;2023-07-20T07:09:14;11.93;;;10.73;;
15130;SDS011;7666;50.920;4.628;2023-07-20T07:12:00;11.73;;;10.60;;
15130;SDS011;7666;50.920;4.628;2023-07-20T07:14:46;12.53;;;11.13;;
15130;SDS011;7666;50.920;4.628;2023-07-20T07:17:32;13.70;;;10.77;;
15130;SDS011;7666;50.920;4.628;2023-07-20T07:20:18;13.10;;;10.50;;
15130;SDS011;7666;50.920;4.628;2023-07-20T07:23:04;10.33;;;9.30;;
15130;SDS011;7666;50.920;4.628;2023-07-20T07:25:50;11.13;;;10.00;;
15130;SDS011;7666;50.920;4.628;2023-07-20T07:28:36;11.80;;;9.67;;
15130;SDS011;7666;50.920;4.628;2023-07-20T07:31:22;11.33;;;9.10;;
15130;SDS011;7666;50.920;4.628;2023-07-20T07:34:10;10.70;;;8.60;;
15130;SDS011;7666;50.920;4.628;2023-07-20T07:36:56;9.47;;;8.60;;
15130;SDS011;7666;50.920;4.628;2023-07-20T07:39:42;9.37;;;8.57;;
15130;SDS011;7666;50.920;4.628;2023-07-20T07:42:28;9.40;;;8.50;;
15130;SDS011;7666;50.920;4.628;2023-07-20T07:45:15;11.03;;;8.97;;
15130;SDS011;7666;50.920;4.628;2023-07-20T07:48:02;11.73;;;9.60;;
15130;SDS011;7666;50.920;4.628;2023-07-20T07:50:48;10.83;;;8.40;;
15130;SDS011;7666;50.920;4.628;2023-07-20T07:53:35;9.70;;;8.70;;
15130;SDS011;7666;50.920;4.628;2023-07-20T07:56:22;7.93;;;7.23;;
15130;SDS011;7666;50.920;4.628;2023-07-20T07:59:08;7.50;;;6.80;;
15130;SDS011;7666;50.920;4.628;2023-07-20T08:01:54;7.60;;;6.90;;
15130;SDS011;7666;50.920;4.628;2023-07-20T08:04:40;8.50;;;6.10;;
15130;SDS011;7666;50.920;4.628;2023-07-20T08:07:26;7.07;;;6.37;;
15130;SDS011;7666;50.920;4.628;2023-07-20T08:10:12;6.77;;;5.93;;
15130;SDS011;7666;50.920;4.628;2023-07-20T08:12:58;5.30;;;4.80;;
15130;SDS011;7666;50.920;4.628;2023-07-20T08:15:45;4.70;;;4.27;;
15130;SDS011;7666;50.920;4.628;2023-07-20T08:18:34;10.20;;;6.03;;
15130;SDS011;7666;50.920;4.628;2023-07-20T08:21:20;6.80;;;5.33;;
15130;SDS011;7666;50.920;4.628;2023-07-20T08:24:06;5.00;;;4.50;;
15130;SDS011;7666;50.920;4.628;2023-07-20T08:26:52;5.90;;;4.90;;
15130;SDS011;7666;50.920;4.628;2023-07-20T08:29:38;4.43;;;4.03;;
15130;SDS011;7666;50.920;4.628;2023-07-20T08:32:25;3.97;;;3.60;;
15130;SDS011;7666;50.920;4.628;2023-07-20T08:35:11;3.40;;;3.10;;
15130;SDS011;7666;50.920;4.628;2023-07-20T08:37:57;4.37;;;3.93;;
15130;SDS011;7666;50.920;4.628;2023-07-20T08:40:43;5.77;;;3.37;;
15130;SDS011;7666;50.920;4.628;2023-07-20T08:43:30;3.77;;;3.43;;
15130;SDS011;7666;50.920;4.628;2023-07-20T08:46:18;3.80;;;3.43;;
15130;SDS011;7666;50.920;4.628;2023-07-20T08:49:05;4.57;;;3.70;;
15130;SDS011;7666;50.920;4.628;2023-07-20T08:51:52;3.77;;;2.83;;
15130;SDS011;7666;50.920;4.628;2023-07-20T08:54:38;3.60;;;3.00;;
15130;SDS011;7666;50.920;4.628;2023-07-20T08:57:25;3.77;;;3.00;;
15130;SDS011;7666;50.920;4.628;2023-07-20T09:00:11;2.83;;;2.63;;
15130;SDS011;7666;50.920;4.628;2023-07-20T09:03:00;6.37;;;2.47;;
15130;SDS011;7666;50.920;4.628;2023-07-20T09:05:49;3.03;;;1.83;;
15130;SDS011;7666;50.920;4.628;2023-07-20T09:08:37;1.77;;;1.50;;
15130;SDS011;7666;50.920;4.628;2023-07-20T09:11:24;1.40;;;1.30;;
15130;SDS011;7666;50.920;4.628;2023-07-20T09:14:10;2.47;;;1.83;;
15130;SDS011;7666;50.920;4.628;2023-07-20T09:16:56;3.83;;;2.17;;
15130;SDS011;7666;50.920;4.628;2023-07-20T09:19:45;2.07;;;1.70;;
15130;SDS011;7666;50.920;4.628;2023-07-20T09:22:32;2.27;;;1.50;;
15130;SDS011;7666;50.920;4.628;2023-07-20T09:25:19;3.17;;;1.47;;
15130;SDS011;7666;50.920;4.628;2023-07-20T09:28:07;2.07;;;1.20;;
15130;SDS011;7666;50.920;4.628;2023-07-20T09:30:54;2.17;;;1.20;;
15130;SDS011;7666;50.920;4.628;2023-07-20T09:33:42;1.37;;;1.07;;
15130;SDS011;7666;50.920;4.628;2023-07-20T09:36:28;1.23;;;1.00;;
15130;SDS011;7666;50.920;4.628;2023-07-20T09:39:14;1.90;;;0.90;;
15130;SDS011;7666;50.920;4.628;2023-07-20T09:42:00;1.90;;;0.80;;
15130;SDS011;7666;50.920;4.628;2023-07-20T09:44:47;1.07;;;0.97;;
15130;SDS011;7666;50.920;4.628;2023-07-20T09:47:35;1.37;;;1.20;;
15130;SDS011;7666;50.920;4.628;2023-07-20T09:50:24;2.00;;;1.10;;
15130;SDS011;7666;50.920;4.628;2023-07-20T09:53:11;1.70;;;1.20;;
15130;SDS011;7666;50.920;4.628;2023-07-20T09:56:01;2.43;;;1.60;;
15130;SDS011;7666;50.920;4.628;2023-07-20T09:58:47;1.97;;;1.10;;
15130;SDS011;7666;50.920;4.628;2023-07-20T10:01:34;1.50;;;1.20;;
15130;SDS011;7666;50.920;4.628;2023-07-20T10:04:20;1.40;;;1.30;;
15130;SDS011;7666;50.920;4.628;2023-07-20T10:07:09;2.23;;;1.17;;
15130;SDS011;7666;50.920;4.628;2023-07-20T10:09:59;2.70;;;1.37;;
15130;SDS011;7666;50.920;4.628;2023-07-20T10:12:48;1.63;;;1.07;;
15130;SDS011;7666;50.920;4.628;2023-07-20T10:18:25;1.43;;;1.33;;
15130;SDS011;7666;50.920;4.628;2023-07-20T10:21:16;3.03;;;1.40;;
15130;SDS011;7666;50.920;4.628;2023-07-20T10:24:04;1.20;;;1.10;;
15130;SDS011;7666;50.920;4.628;2023-07-20T10:26:50;1.30;;;1.20;;
15130;SDS011;7666;50.920;4.628;2023-07-20T10:29:37;2.47;;;0.93;;
15130;SDS011;7666;50.920;4.628;2023-07-20T10:32:24;1.53;;;0.97;;
15130;SDS011;7666;50.920;4.628;2023-07-20T10:35:14;1.87;;;1.17;;
15130;SDS011;7666;50.920;4.628;2023-07-20T10:38:01;2.43;;;1.30;;
15130;SDS011;7666;50.920;4.628;2023-07-20T10:40:54;2.57;;;1.30;;
15130;SDS011;7666;50.920;4.628;2023-07-20T10:43:44;1.97;;;1.10;;
15130;SDS011;7666;50.920;4.628;2023-07-20T10:46:34;2.30;;;0.93;;
15130;SDS011;7666;50.920;4.628;2023-07-20T10:49:23;1.00;;;0.90;;
15130;SDS011;7666;50.920;4.628;2023-07-20T10:52:12;1.33;;;0.90;;
15130;SDS011;7666;50.920;4.628;2023-07-20T10:54:59;1.53;;;1.10;;
15130;SDS011;7666;50.920;4.628;2023-07-20T10:58:06;1.60;;;1.10;;
15130;SDS011;7666;50.920;4.628;2023-07-20T11:00:57;0.80;;;0.80;;
15130;SDS011;7666;50.920;4.628;2023-07-20T11:03:48;0.67;;;0.60;;
15130;SDS011;7666;50.920;4.628;2023-07-20T11:06:35;2.33;;;1.00;;
15130;SDS011;7666;50.920;4.628;2023-07-20T11:09:25;1.17;;;0.90;;
15130;SDS011;7666;50.920;4.628;2023-07-20T11:12:18;3.03;;;1.10;;
15130;SDS011;7666;50.920;4.628;2023-07-20T11:15:05;1.77;;;0.93;;
15130;SDS011;7666;50.920;4.628;2023-07-20T11:17:51;2.13;;;0.90;;
15130;SDS011;7666;50.920;4.628;2023-07-20T11:20:37;1.13;;;0.80;;
15130;SDS011;7666;50.920;4.628;2023-07-20T11:23:23;2.07;;;0.90;;
15130;SDS011;7666;50.920;4.628;2023-07-20T11:26:09;1.90;;;0.90;;
15130;SDS011;7666;50.920;4.628;2023-07-20T11:28:56;0.80;;;0.70;;
15130;SDS011;7666;50.920;4.628;2023-07-20T11:31:45;0.73;;;0.73;;
15130;SDS011;7666;50.920;4.628;2023-07-20T11:34:32;1.73;;;0.80;;
15130;SDS011;7666;50.920;4.628;2023-07-20T11:37:19;0.70;;;0.63;;
15130;SDS011;7666;50.920;4.628;2023-07-20T11:40:05;2.00;;;1.03;;
15130;SDS011;7666;50.920;4.628;2023-07-20T11:42:52;2.80;;;1.00;;
15130;SDS011;7666;50.920;4.628;2023-07-20T11:45:39;0.87;;;0.70;;
15130;SDS011;7666;50.920;4.628;2023-07-20T11:48:25;2.03;;;0.67;;
15130;SDS011;7666;50.920;4.628;2023-07-20T11:51:17;2.20;;;0.73;;
15130;SDS011;7666;50.920;4.628;2023-07-20T11:54:05;1.63;;;0.83;;
15130;SDS011;7666;50.920;4.628;2023-07-20T11:56:54;1.13;;;0.83;;
15130;SDS011;7666;50.920;4.628;2023-07-20T11:59:52;1.30;;;0.90;;
15130;SDS011;7666;50.920;4.628;2023-07-20T12:02:46;1.77;;;1.00;;
15130;SDS011;7666;50.920;4.628;2023-07-20T12:05:32;3.13;;;1.30;;
15130;SDS011;7666;50.920;4.628;2023-07-20T12:08:18;2.53;;;1.00;;
15130;SDS011;7666;50.920;4.628;2023-07-20T12:11:04;1.93;;;0.93;;
15130;SDS011;7666;50.920;4.628;2023-07-20T12:13:50;1.10;;;0.80;;
15130;SDS011;7666;50.920;4.628;2023-07-20T12:16:37;3.27;;;0.90;;
15130;SDS011;7666;50.920;4.628;2023-07-20T12:19:24;1.43;;;0.80;;
15130;SDS011;7666;50.920;4.628;2023-07-20T12:22:11;1.07;;;0.90;;
15130;SDS011;7666;50.920;4.628;2023-07-20T12:24:57;1.97;;;0.97;;
15130;SDS011;7666;50.920;4.628;2023-07-20T12:27:44;1.20;;;0.80;;
15130;SDS011;7666;50.920;4.628;2023-07-20T12:30:30;1.50;;;0.83;;
15130;SDS011;7666;50.920;4.628;2023-07-20T12:33:16;1.20;;;0.93;;
15130;SDS011;7666;50.920;4.628;2023-07-20T12:36:02;2.07;;;1.17;;
15130;SDS011;7666;50.920;4.628;2023-07-20T12:38:49;3.90;;;1.10;;
15130;SDS011;7666;50.920;4.628;2023-07-20T12:41:36;1.73;;;1.00;;
15130;SDS011;7666;50.920;4.628;2023-07-20T12:44:22;3.57;;;0.90;;
15130;SDS011;7666;50.920;4.628;2023-07-20T12:47:08;1.50;;;1.00;;
15130;SDS011;7666;50.920;4.628;2023-07-20T12:49:54;1.53;;;1.10;;
15130;SDS011;7666;50.920;4.628;2023-07-20T12:52:41;1.07;;;0.80;;
15130;SDS011;7666;50.920;4.628;2023-07-20T12:55:27;1.97;;;1.00;;
15130;SDS011;7666;50.920;4.628;2023-07-20T12:58:13;2.30;;;1.00;;
15130;SDS011;7666;50.920;4.628;2023-07-20T13:00:59;3.13;;;1.30;;
15130;SDS011;7666;50.920;4.628;2023-07-20T13:03:45;1.80;;;0.90;;
15130;SDS011;7666;50.920;4.628;2023-07-20T13:06:31;1.40;;;0.90;;
15130;SDS011;7666;50.920;4.628;2023-07-20T13:09:17;2.80;;;1.10;;
15130;SDS011;7666;50.920;4.628;2023-07-20T13:12:03;1.07;;;0.97;;
15130;SDS011;7666;50.920;4.628;2023-07-20T13:14:49;1.10;;;1.00;;
15130;SDS011;7666;50.920;4.628;2023-07-20T13:17:35;2.03;;;0.90;;
15130;SDS011;7666;50.920;4.628;2023-07-20T13:20:22;1.17;;;1.00;;
15130;SDS011;7666;50.920;4.628;2023-07-20T13:23:08;0.87;;;0.87;;
15130;SDS011;7666;50.920;4.628;2023-07-20T13:25:54;1.50;;;0.90;;
15130;SDS011;7666;50.920;4.628;2023-07-20T13:28:40;1.40;;;0.77;;
15130;SDS011;7666;50.920;4.628;2023-07-20T13:31:26;1.37;;;1.00;;
15130;SDS011;7666;50.920;4.628;2023-07-20T13:34:12;1.73;;;1.10;;
15130;SDS011;7666;50.920;4.628;2023-07-20T13:36:58;2.33;;;1.07;;
15130;SDS011;7666;50.920;4.628;2023-07-20T13:39:44;1.63;;;0.80;;
15130;SDS011;7666;50.920;4.628;2023-07-20T13:42:30;1.03;;;0.93;;
15130;SDS011;7666;50.920;4.628;2023-07-20T13:45:17;1.67;;;1.03;;
15130;SDS011;7666;50.920;4.628;2023-07-20T13:48:03;1.73;;;0.83;;
15130;SDS011;7666;50.920;4.628;2023-07-20T13:50:49;2.97;;;1.13;;
15130;SDS011;7666;50.920;4.628;2023-07-20T13:53:36;1.60;;;0.77;;
15130;SDS011;7666;50.920;4.628;2023-07-20T13:56:22;2.80;;;1.10;;
15130;SDS011;7666;50.920;4.628;2023-07-20T13:59:09;3.20;;;1.20;;
15130;SDS011;7666;50.920;4.628;2023-07-20T14:01:55;1.37;;;1.20;;
15130;SDS011;7666;50.920;4.628;2023-07-20T14:04:41;1.50;;;0.90;;
15130;SDS011;7666;50.920;4.628;2023-07-20T14:07:27;1.87;;;0.93;;
15130;SDS011;7666;50.920;4.628;2023-07-20T14:10:13;1.50;;;0.93;;
15130;SDS011;7666;50.920;4.628;2023-07-20T14:12:59;2.23;;;0.83;;
15130;SDS011;7666;50.920;4.628;2023-07-20T14:15:45;1.80;;;1.10;;
15130;SDS011;7666;50.920;4.628;2023-07-20T14:18:31;1.07;;;1.00;;
15130;SDS011;7666;50.920;4.628;2023-07-20T14:21:18;1.87;;;0.93;;
15130;SDS011;7666;50.920;4.628;2023-07-20T14:24:05;2.53;;;1.00;;
15130;SDS011;7666;50.920;4.628;2023-07-20T14:26:51;1.10;;;1.00;;
15130;SDS011;7666;50.920;4.628;2023-07-20T14:29:37;2.00;;;1.20;;
15130;SDS011;7666;50.920;4.628;2023-07-20T14:32:23;1.73;;;1.10;;
15130;SDS011;7666;50.920;4.628;2023-07-20T14:35:09;1.43;;;1.30;;
15130;SDS011;7666;50.920;4.628;2023-07-20T14:37:55;2.33;;;1.40;;
15130;SDS011;7666;50.920;4.628;2023-07-20T14:40:41;1.73;;;1.23;;
15130;SDS011;7666;50.920;4.628;2023-07-20T14:43:27;2.23;;;1.30;;
15130;SDS011;7666;50.920;4.628;2023-07-20T14:46:13;1.50;;;1.20;;
15130;SDS011;7666;50.920;4.628;2023-07-20T14:48:59;1.87;;;1.40;;
15130;SDS011;7666;50.920;4.628;2023-07-20T14:51:45;1.93;;;1.20;;
15130;SDS011;7666;50.920;4.628;2023-07-20T14:54:32;1.43;;;1.20;;
15130;SDS011;7666;50.920;4.628;2023-07-20T14:57:18;2.43;;;1.30;;
15130;SDS011;7666;50.920;4.628;2023-07-20T15:00:04;1.70;;;1.37;;
15130;SDS011;7666;50.920;4.628;2023-07-20T15:02:56;2.30;;;1.40;;
15130;SDS011;7666;50.920;4.628;2023-07-20T15:05:42;2.33;;;1.60;;
15130;SDS011;7666;50.920;4.628;2023-07-20T15:08:28;2.73;;;1.43;;
15130;SDS011;7666;50.920;4.628;2023-07-20T15:11:14;2.90;;;1.50;;
15130;SDS011;7666;50.920;4.628;2023-07-20T15:14:00;2.80;;;1.50;;
15130;SDS011;7666;50.920;4.628;2023-07-20T15:16:46;4.53;;;1.30;;
15130;SDS011;7666;50.920;4.628;2023-07-20T15:19:32;3.70;;;1.40;;
15130;SDS011;7666;50.920;4.628;2023-07-20T15:22:19;1.87;;;1.07;;
15130;SDS011;7666;50.920;4.628;2023-07-20T15:25:07;1.67;;;1.30;;
15130;SDS011;7666;50.920;4.628;2023-07-20T15:27:56;1.90;;;1.37;;
15130;SDS011;7666;50.920;4.628;2023-07-20T15:30:41;2.03;;;1.40;;
15130;SDS011;7666;50.920;4.628;2023-07-20T15:33:27;2.30;;;1.43;;
15130;SDS011;7666;50.920;4.628;2023-07-20T15:36:14;1.70;;;1.40;;
15130;SDS011;7666;50.920;4.628;2023-07-20T15:39:00;3.70;;;1.40;;
15130;SDS011;7666;50.920;4.628;2023-07-20T15:41:47;2.33;;;1.30;;
15130;SDS011;7666;50.920;4.628;2023-07-20T15:44:33;2.87;;;1.30;;
15130;SDS011;7666;50.920;4.628;2023-07-20T15:47:20;3.50;;;1.40;;
15130;SDS011;7666;50.920;4.628;2023-07-20T15:50:06;1.80;;;1.40;;
15130;SDS011;7666;50.920;4.628;2023-07-20T15:52:52;1.27;;;1.17;;
15130;SDS011;7666;50.920;4.628;2023-07-20T15:55:38;1.60;;;1.27;;
15130;SDS011;7666;50.920;4.628;2023-07-20T15:58:24;2.57;;;1.30;;
15130;SDS011;7666;50.920;4.628;2023-07-20T16:01:10;1.60;;;1.40;;
15130;SDS011;7666;50.920;4.628;2023-07-20T16:03:56;1.57;;;1.23;;
15130;SDS011;7666;50.920;4.628;2023-07-20T16:06:42;3.47;;;1.57;;
15130;SDS011;7666;50.920;4.628;2023-07-20T16:09:28;3.13;;;1.60;;
15130;SDS011;7666;50.920;4.628;2023-07-20T16:12:14;3.73;;;1.97;;
15130;SDS011;7666;50.920;4.628;2023-07-20T16:15:00;2.50;;;1.60;;
15130;SDS011;7666;50.920;4.628;2023-07-20T16:17:47;3.43;;;2.50;;
15130;SDS011;7666;50.920;4.628;2023-07-20T16:20:33;7.20;;;3.70;;
15130;SDS011;7666;50.920;4.628;2023-07-20T16:23:19;4.87;;;4.20;;
15130;SDS011;7666;50.920;4.628;2023-07-20T16:26:05;5.77;;;4.30;;
15130;SDS011;7666;50.920;4.628;2023-07-20T16:28:51;4.10;;;3.77;;
15130;SDS011;7666;50.920;4.628;2023-07-20T16:31:37;4.80;;;4.40;;
15130;SDS011;7666;50.920;4.628;2023-07-20T16:34:23;4.80;;;4.40;;
15130;SDS011;7666;50.920;4.628;2023-07-20T16:37:09;4.73;;;4.43;;
15130;SDS011;7666;50.920;4.628;2023-07-20T16:39:55;4.60;;;4.20;;
15130;SDS011;7666;50.920;4.628;2023-07-20T16:42:41;6.53;;;4.30;;
15130;SDS011;7666;50.920;4.628;2023-07-20T16:45:27;4.97;;;4.47;;
15130;SDS011;7666;50.920;4.628;2023-07-20T16:48:13;4.60;;;4.20;;
15130;SDS011;7666;50.920;4.628;2023-07-20T16:51:00;5.17;;;3.93;;
15130;SDS011;7666;50.920;4.628;2023-07-20T16:53:48;4.53;;;4.13;;
15130;SDS011;7666;50.920;4.628;2023-07-20T16:56:34;4.63;;;3.97;;
15130;SDS011;7666;50.920;4.628;2023-07-20T16:59:20;6.00;;;4.10;;
15130;SDS011;7666;50.920;4.628;2023-07-20T17:02:06;3.40;;;3.13;;